createdAt,value
2019-01-02T00:00:30.972Z,3.56
2019-01-02T00:03:04.596Z,3.53
2019-01-02T00:05:37.150Z,3.46
2019-01-02T00:08:10.046Z,3.52
2019-01-02T00:10:44.314Z,3.50
2019-01-02T00:13:16.707Z,3.66
2019-01-02T00:15:50.244Z,3.63
2019-01-02T00:18:22.499Z,3.61
2019-01-02T00:20:58.479Z,3.65
2019-01-02T00:23:31.078Z,3.74
2019-01-02T00:26:02.992Z,3.66
2019-01-02T00:28:35.986Z,3.49
2019-01-02T00:31:08.886Z,3.46
2019-01-02T00:33:40.745Z,3.44
2019-01-02T00:36:13.198Z,3.36
2019-01-02T00:38:46.592Z,3.17
2019-01-02T00:41:18.869Z,3.18
2019-01-02T00:43:50.826Z,3.18
2019-01-02T00:46:22.722Z,3.16
2019-01-02T00:48:54.969Z,3.02
2019-01-02T00:51:26.791Z,2.94
2019-01-02T00:53:59.166Z,2.88
2019-01-02T00:56:31.069Z,2.89
2019-01-02T00:59:03.658Z,3.02
2019-01-02T01:01:36.663Z,3.07
2019-01-02T01:04:10.850Z,3.02
2019-01-02T01:06:42.911Z,2.92
2019-01-02T01:09:17.867Z,2.89
2019-01-02T01:11:49.823Z,2.86
2019-01-02T01:14:22.898Z,2.87
2019-01-02T01:17:11.576Z,2.83
2019-01-02T01:19:39.811Z,2.73
2019-01-02T01:22:12.276Z,2.69
2019-01-02T01:24:44.370Z,2.57
2019-01-02T01:27:16.630Z,2.48
2019-01-02T01:29:49.860Z,2.48
2019-01-02T01:32:21.773Z,2.58
2019-01-02T01:34:54.514Z,2.52
2019-01-02T01:37:26.627Z,2.50
2019-01-02T01:40:02.120Z,2.42
2019-01-02T01:42:34.571Z,2.33
2019-01-02T01:45:08.629Z,2.36
2019-01-02T01:47:40.721Z,2.26
2019-01-02T01:50:13.163Z,2.22
2019-01-02T01:52:45.375Z,2.26
2019-01-02T01:55:17.244Z,2.22
2019-01-02T01:57:49.977Z,2.15
2019-01-02T02:00:22.541Z,2.06
2019-01-02T02:02:54.486Z,2.08
2019-01-02T02:05:29.575Z,2.18
2019-01-02T02:08:03.871Z,2.17
2019-01-02T02:10:35.734Z,2.17
2019-01-02T02:13:08.185Z,2.22
2019-01-02T02:15:40.057Z,2.20
2019-01-02T02:18:11.957Z,2.25
2019-01-02T02:20:43.971Z,2.28
2019-01-02T02:23:15.873Z,2.16
2019-01-02T02:25:48.240Z,2.17
2019-01-02T02:28:20.122Z,2.19
2019-01-02T02:30:52.038Z,2.16
2019-01-02T02:33:24.170Z,2.16
2019-01-02T02:35:56.527Z,2.18
2019-01-02T02:38:28.894Z,2.20
2019-01-02T02:41:03.340Z,2.14
2019-01-02T02:43:38.848Z,2.07
2019-01-02T02:46:10.797Z,1.94
2019-01-02T02:48:45.242Z,1.78
2019-01-02T02:51:17.498Z,1.67
2019-01-02T02:53:49.886Z,1.67
2019-01-02T02:56:21.925Z,1.67
2019-01-02T02:58:54.324Z,1.67
2019-01-02T03:01:27.246Z,1.59
2019-01-02T03:03:59.580Z,1.67
2019-01-02T03:06:32.046Z,1.66
2019-01-02T03:09:05.528Z,1.71
2019-01-02T03:11:37.430Z,1.76
2019-01-02T03:14:09.324Z,1.86
2019-01-02T03:16:41.770Z,1.87
2019-01-02T03:19:14.186Z,1.89
2019-01-02T03:21:46.548Z,1.91
2019-01-02T03:24:18.739Z,1.88
2019-01-02T03:26:50.966Z,1.76
2019-01-02T03:29:22.946Z,1.63
2019-01-02T03:31:55.114Z,1.60
2019-01-02T03:34:27.486Z,1.56
2019-01-02T03:36:59.385Z,1.47
2019-01-02T03:39:31.256Z,1.34
2019-01-02T03:42:03.096Z,1.21
2019-01-02T03:44:35.369Z,1.23
2019-01-02T03:47:07.758Z,1.26
2019-01-02T03:49:39.657Z,1.37
2019-01-02T03:52:11.526Z,1.35
2019-01-02T03:54:45.034Z,1.35
2019-01-02T03:57:16.923Z,1.30
2019-01-02T03:59:48.786Z,1.28
2019-01-02T04:02:20.641Z,1.29
2019-01-02T04:04:52.562Z,1.22
2019-01-02T04:07:24.432Z,1.20
2019-01-02T04:09:56.399Z,1.20
2019-01-02T04:12:28.285Z,1.19
2019-01-02T04:15:02.908Z,1.19
2019-01-02T04:17:34.800Z,1.22
2019-01-02T04:20:06.959Z,1.27
2019-01-02T04:22:39.207Z,1.41
2019-01-02T04:25:11.249Z,1.50
2019-01-02T04:27:43.210Z,1.56
2019-01-02T04:30:15.765Z,1.50
2019-01-02T04:32:47.629Z,1.43
2019-01-02T04:35:19.919Z,1.33
2019-01-02T04:37:51.809Z,1.20
2019-01-02T04:40:23.658Z,1.15
2019-01-02T04:42:55.582Z,1.11
2019-01-02T04:45:27.451Z,1.17
2019-01-02T04:47:59.294Z,1.20
2019-01-02T04:50:31.163Z,1.21
2019-01-02T04:53:05.804Z,1.12
2019-01-02T04:55:37.834Z,1.19
2019-01-02T04:58:09.857Z,1.13
2019-01-02T05:00:41.695Z,1.13
2019-01-02T05:03:14.882Z,0.99
2019-01-02T05:05:47.994Z,1.00
2019-01-02T05:08:20.014Z,1.02
2019-01-02T05:10:51.916Z,0.99
2019-01-02T05:13:23.840Z,1.06
2019-01-02T05:15:58.977Z,0.98
2019-01-02T05:18:30.876Z,0.98
2019-01-02T05:21:04.252Z,0.96
2019-01-02T05:23:37.954Z,0.93
2019-01-02T05:26:10.050Z,0.96
2019-01-02T05:28:42.027Z,0.87
2019-01-02T05:31:14.242Z,0.81
2019-01-02T05:33:46.552Z,0.72
2019-01-02T05:36:18.397Z,0.66
2019-01-02T05:38:50.291Z,0.70
2019-01-02T05:41:23.833Z,0.67
2019-01-02T05:43:56.045Z,0.76
2019-01-02T05:46:27.906Z,0.69
2019-01-02T05:48:59.770Z,0.63
2019-01-02T05:51:31.641Z,0.78
2019-01-02T05:54:03.718Z,0.71
2019-01-02T05:56:35.565Z,0.66
2019-01-02T05:59:07.445Z,0.60
2019-01-02T06:01:39.718Z,0.56
2019-01-02T06:04:11.644Z,0.49
2019-01-02T06:06:43.991Z,0.48
2019-01-02T06:09:15.813Z,0.55
2019-01-02T06:11:47.706Z,0.73
2019-01-02T06:14:19.590Z,0.78
2019-01-02T06:16:51.476Z,0.80
2019-01-02T06:19:23.475Z,0.81
2019-01-02T06:21:58.566Z,0.85
2019-01-02T06:24:30.425Z,0.90
2019-01-02T06:27:02.352Z,0.88
2019-01-02T06:29:34.183Z,0.83
2019-01-02T06:32:06.117Z,0.77
2019-01-02T06:34:40.682Z,0.68
2019-01-02T06:37:13.704Z,0.62
2019-01-02T06:39:45.631Z,0.65
2019-01-02T06:42:17.502Z,0.66
2019-01-02T06:44:49.337Z,0.65
2019-01-02T06:47:21.206Z,0.71
2019-01-02T06:49:53.049Z,0.72
2019-01-02T06:52:24.924Z,0.77
2019-01-02T06:54:57.107Z,0.68
2019-01-02T06:57:32.729Z,0.62
2019-01-02T07:00:13.121Z,0.58
2019-01-02T07:02:45.292Z,0.55
2019-01-02T07:05:17.505Z,0.53
2019-01-02T07:07:49.495Z,0.55
2019-01-02T07:10:21.477Z,0.56
2019-01-02T07:12:54.488Z,0.59
2019-01-02T07:15:26.366Z,0.60
2019-01-02T07:17:58.231Z,0.49
2019-01-02T07:20:30.078Z,0.48
2019-01-02T07:23:02.624Z,0.39
2019-01-02T07:25:34.988Z,0.29
2019-01-02T07:28:06.847Z,0.32
2019-01-02T07:30:38.771Z,0.35
2019-01-02T07:33:12.271Z,0.31
2019-01-02T07:36:28.750Z,0.25
2019-01-02T07:39:28.392Z,0.21
2019-01-02T07:42:38.204Z,0.06
2019-01-02T07:45:33.258Z,0.13
2019-01-02T07:48:43.102Z,0.22
2019-01-02T07:51:52.714Z,0.28
2019-01-02T07:55:09.491Z,0.32
2019-01-02T07:58:09.129Z,0.36
2019-01-02T08:00:51.657Z,0.41
2019-01-02T08:04:13.791Z,0.44
2019-01-02T08:07:37.148Z,0.47
2019-01-02T08:10:40.724Z,0.45
2019-01-02T08:13:52.161Z,0.58
2019-01-02T08:17:01.050Z,0.58
2019-01-02T08:20:04.409Z,0.64
2019-01-02T08:23:09.311Z,0.73
2019-01-02T08:26:25.346Z,0.80
2019-01-02T08:29:41.376Z,0.85
2019-01-02T08:32:53.623Z,0.86
2019-01-02T08:35:45.282Z,0.89
2019-01-02T08:39:06.442Z,0.91
2019-01-02T08:42:12.240Z,0.94
2019-01-02T08:45:52.238Z,0.86
2019-01-02T08:48:56.473Z,0.96
2019-01-02T08:51:51.682Z,1.08
2019-01-02T08:55:16.312Z,1.15
2019-01-02T08:58:17.497Z,1.22
2019-01-02T09:01:03.411Z,1.32
2019-01-02T09:04:11.107Z,1.48
2019-01-02T09:07:18.414Z,1.61
2019-01-02T09:10:49.196Z,1.69
2019-01-02T09:13:45.590Z,1.84
2019-01-02T09:16:46.335Z,1.97
2019-01-02T09:20:06.304Z,2.13
2019-01-02T09:23:26.906Z,2.36
2019-01-02T09:26:24.292Z,2.58
2019-01-02T09:29:23.776Z,3.29
2019-01-02T09:32:28.632Z,4.99
2019-01-02T09:36:05.396Z,7.79
2019-01-02T09:39:10.057Z,9.57
2019-01-02T09:42:08.125Z,10.31
2019-01-02T09:45:17.320Z,11.83
2019-01-02T09:48:13.310Z,11.24
2019-01-02T09:51:41.649Z,12.35
2019-01-02T09:54:50.331Z,14.01
2019-01-02T09:58:00.261Z,15.81
2019-01-02T10:01:13.099Z,15.07
2019-01-02T10:04:30.793Z,14.57
2019-01-02T10:07:30.470Z,14.61
2019-01-02T10:10:36.125Z,13.64
2019-01-02T10:13:43.095Z,13.29
2019-01-02T10:16:56.972Z,15.35
2019-01-02T10:19:53.917Z,14.47
2019-01-02T10:23:13.126Z,16.14
2019-01-02T10:26:11.706Z,17.99
2019-01-02T10:29:33.260Z,17.31
2019-01-02T10:33:00.004Z,16.72
2019-01-02T10:36:18.721Z,16.23
2019-01-02T10:39:42.852Z,15.79
2019-01-02T10:43:01.801Z,16.53
2019-01-02T10:46:05.187Z,19.06
2019-01-02T10:49:18.254Z,18.47
2019-01-02T10:52:32.981Z,19.22
2019-01-02T10:55:35.022Z,19.23
2019-01-02T10:58:56.967Z,20.65
2019-01-02T11:02:13.114Z,20.08
2019-01-02T11:05:11.179Z,20.06
2019-01-02T11:08:17.671Z,19.31
2019-01-02T11:11:39.028Z,20.69
2019-01-02T11:14:53.511Z,21.16
2019-01-02T11:17:58.008Z,21.32
2019-01-02T11:20:55.674Z,22.02
2019-01-02T11:24:29.524Z,21.65
2019-01-02T11:27:50.292Z,22.15
2019-01-02T11:31:13.624Z,21.85
2019-01-02T11:34:35.568Z,22.04
2019-01-02T11:37:57.561Z,23.32
2019-01-02T11:41:06.120Z,23.23
2019-01-02T11:44:37.138Z,24.29
2019-01-02T11:47:09.484Z,24.56
2019-01-02T11:49:41.396Z,26.15
2019-01-02T11:52:13.294Z,25.08
2019-01-02T11:54:45.329Z,25.48
2019-01-02T11:57:17.260Z,25.93
2019-01-02T11:59:50.421Z,26.77
2019-01-02T12:02:22.287Z,26.22
2019-01-02T12:04:54.381Z,24.47
2019-01-02T12:07:26.243Z,25.09
2019-01-02T12:09:58.611Z,25.67
2019-01-02T12:12:30.491Z,24.62
2019-01-02T12:15:02.397Z,24.40
2019-01-02T12:17:34.338Z,25.50
2019-01-02T12:20:06.709Z,25.16
2019-01-02T12:22:38.633Z,26.13
2019-01-02T12:25:10.563Z,25.15
2019-01-02T12:27:42.398Z,25.33
2019-01-02T12:30:15.870Z,25.49
2019-01-02T12:32:48.475Z,24.38
2019-01-02T12:35:23.217Z,25.80
2019-01-02T12:37:59.256Z,25.62
2019-01-02T12:40:31.163Z,24.29
2019-01-02T12:43:03.001Z,25.34
2019-01-02T12:45:34.953Z,25.05
2019-01-02T12:48:06.845Z,26.79
2019-01-02T12:50:38.732Z,26.46
2019-01-02T12:53:12.307Z,24.79
2019-01-02T12:55:49.561Z,24.43
2019-01-02T12:58:21.548Z,24.21
2019-01-02T13:01:05.369Z,26.50
2019-01-02T13:04:24.342Z,25.10
2019-01-02T13:07:35.961Z,24.93
2019-01-02T13:10:57.228Z,25.25
2019-01-02T13:14:04.804Z,23.89
2019-01-02T13:17:22.935Z,25.34
2019-01-02T13:20:38.403Z,24.71
2019-01-02T13:23:31.200Z,24.51
2019-01-02T13:26:18.710Z,22.21
2019-01-02T13:29:35.438Z,22.07
2019-01-02T13:32:45.876Z,19.40
2019-01-02T13:35:46.355Z,17.80
2019-01-02T13:38:51.814Z,16.32
2019-01-02T13:42:04.602Z,15.44
2019-01-02T13:45:11.507Z,14.95
2019-01-02T13:48:06.612Z,14.77
2019-01-02T13:51:05.421Z,14.79
2019-01-02T13:53:38.807Z,14.86
2019-01-02T13:56:16.449Z,14.69
2019-01-02T13:58:48.402Z,14.80
2019-01-02T14:01:20.302Z,14.76
2019-01-02T14:03:55.262Z,14.63
2019-01-02T14:06:28.756Z,14.30
2019-01-02T14:09:00.628Z,14.23
2019-01-02T14:11:33.888Z,14.33
2019-01-02T14:14:05.868Z,14.17
2019-01-02T14:16:37.737Z,14.33
2019-01-02T14:19:09.631Z,14.18
2019-01-02T14:21:41.489Z,14.16
2019-01-02T14:24:13.871Z,14.18
2019-01-02T14:26:45.760Z,14.07
2019-01-02T14:29:17.711Z,13.93
2019-01-02T14:31:49.583Z,13.98
2019-01-02T14:34:23.105Z,13.93
2019-01-02T14:36:54.982Z,14.00
2019-01-02T14:39:27.260Z,13.94
2019-01-02T14:41:59.115Z,13.94
2019-01-02T14:44:31.435Z,14.14
2019-01-02T14:47:03.326Z,13.99
2019-01-02T14:49:35.642Z,13.98
2019-01-02T14:52:07.489Z,14.06
2019-01-02T14:54:39.438Z,14.09
2019-01-02T14:57:11.416Z,13.95
2019-01-02T14:59:43.364Z,13.87
2019-01-02T15:02:15.307Z,13.76
2019-01-02T15:04:47.145Z,13.72
2019-01-02T15:07:19.092Z,13.71
2019-01-02T15:09:50.934Z,13.77
2019-01-02T15:12:22.839Z,13.68
2019-01-02T15:14:58.223Z,13.73
2019-01-02T15:17:30.148Z,13.82
2019-01-02T15:20:02.454Z,13.78
2019-01-02T15:22:34.367Z,13.80
2019-01-02T15:25:07.353Z,13.82
2019-01-02T15:27:39.481Z,13.76
2019-01-02T15:30:13.532Z,13.71
2019-01-02T15:32:48.373Z,13.73
2019-01-02T15:35:20.250Z,13.71
2019-01-02T15:37:55.666Z,13.61
2019-01-02T15:40:26.299Z,13.56
2019-01-02T15:42:58.363Z,13.49
2019-01-02T15:45:30.333Z,13.52
2019-01-02T15:48:03.844Z,13.43
2019-01-02T15:50:35.840Z,13.48
2019-01-02T15:53:10.993Z,13.39
2019-01-02T15:55:46.596Z,13.37
2019-01-02T15:58:18.473Z,13.38
2019-01-02T16:00:50.479Z,13.42
2019-01-02T16:03:22.381Z,13.47
2019-01-02T16:05:54.370Z,13.24
2019-01-02T16:08:28.342Z,13.18
2019-01-02T16:11:00.252Z,13.12
2019-01-02T16:13:32.303Z,13.13
2019-01-02T16:16:04.189Z,13.08
2019-01-02T16:18:36.098Z,13.00
2019-01-02T16:21:07.963Z,12.94
2019-01-02T16:23:40.493Z,12.88
2019-01-02T16:26:12.646Z,12.88
2019-01-02T16:28:44.521Z,12.89
2019-01-02T16:31:16.855Z,12.82
2019-01-02T16:33:48.790Z,12.86
2019-01-02T16:36:21.057Z,12.85
2019-01-02T16:38:53.198Z,12.74
2019-01-02T16:41:25.177Z,12.66
2019-01-02T16:43:57.060Z,12.49
2019-01-02T16:46:29.369Z,12.27
2019-01-02T16:49:01.308Z,11.94
2019-01-02T16:51:33.332Z,11.75
2019-01-02T16:54:05.221Z,11.67
2019-01-02T16:56:37.109Z,11.48
2019-01-02T16:59:16.863Z,11.33
2019-01-02T17:01:49.610Z,11.25
2019-01-02T17:04:22.351Z,11.26
2019-01-02T17:06:54.277Z,11.12
2019-01-02T17:09:26.211Z,10.90
2019-01-02T17:11:58.111Z,10.68
2019-01-02T17:14:29.979Z,10.52
2019-01-02T17:17:01.842Z,10.35
2019-01-02T17:19:33.719Z,10.17
2019-01-02T17:22:05.570Z,10.06
2019-01-02T17:24:37.520Z,10.07
2019-01-02T17:27:09.380Z,9.98
2019-01-02T17:29:41.673Z,9.69
2019-01-02T17:32:14.710Z,9.50
2019-01-02T17:34:46.995Z,9.37
2019-01-02T17:37:18.842Z,9.32
2019-01-02T17:39:50.749Z,9.17
2019-01-02T17:42:22.648Z,9.02
2019-01-02T17:44:54.547Z,8.88
2019-01-02T17:47:26.575Z,8.77
2019-01-02T17:49:58.491Z,8.66
2019-01-02T17:52:30.354Z,8.56
2019-01-02T17:55:04.136Z,8.47
2019-01-02T17:57:36.014Z,8.35
2019-01-02T18:00:11.953Z,8.22
2019-01-02T18:02:43.986Z,8.11
2019-01-02T18:05:17.275Z,8.08
2019-01-02T18:07:49.292Z,7.99
2019-01-02T18:10:21.137Z,7.88
2019-01-02T18:12:53.076Z,7.83
2019-01-02T18:15:26.947Z,7.75
2019-01-02T18:17:58.852Z,7.68
2019-01-02T18:20:30.734Z,7.56
2019-01-02T18:23:03.021Z,7.53
2019-01-02T18:25:35.215Z,7.41
2019-01-02T18:28:09.136Z,7.30
2019-01-02T18:30:41.013Z,7.29
2019-01-02T18:33:13.273Z,7.16
2019-01-02T18:35:46.640Z,7.08
2019-01-02T18:38:18.618Z,7.03
2019-01-02T18:40:50.505Z,6.88
2019-01-02T18:43:25.915Z,6.76
2019-01-02T18:45:59.320Z,6.70
2019-01-02T18:48:48.088Z,6.65
2019-01-02T18:51:20.066Z,6.65
2019-01-02T18:53:52.143Z,6.65
2019-01-02T18:56:24.000Z,6.55
2019-01-02T18:58:55.913Z,6.55
2019-01-02T19:01:27.797Z,6.50
2019-01-02T19:03:59.732Z,6.37
2019-01-02T19:06:31.615Z,6.38
2019-01-02T19:09:03.628Z,6.26
2019-01-02T19:11:35.530Z,6.14
2019-01-02T19:14:07.411Z,6.07
2019-01-02T19:16:40.634Z,6.03
2019-01-02T19:19:12.527Z,5.93
2019-01-02T19:21:44.448Z,5.88
2019-01-02T19:24:18.134Z,5.87
2019-01-02T19:26:50.540Z,5.81
2019-01-02T19:29:22.485Z,5.73
2019-01-02T19:31:54.577Z,5.71
2019-01-02T19:34:26.511Z,5.66
2019-01-02T19:36:58.472Z,5.61
2019-01-02T19:39:30.368Z,5.55
2019-01-02T19:42:02.291Z,5.51
2019-01-02T19:44:34.190Z,5.46
2019-01-02T19:47:06.097Z,5.46
2019-01-02T19:49:41.188Z,5.38
2019-01-02T19:52:13.073Z,5.32
2019-01-02T19:54:47.839Z,5.28
2019-01-02T19:57:19.863Z,5.23
2019-01-02T19:59:53.782Z,5.19
2019-01-02T20:02:25.940Z,5.13
2019-01-02T20:04:57.880Z,5.13
2019-01-02T20:07:29.879Z,5.10
2019-01-02T20:10:01.842Z,5.14
2019-01-02T20:12:33.756Z,5.11
2019-01-02T20:15:10.770Z,4.98
2019-01-02T20:17:42.990Z,4.84
2019-01-02T20:20:15.416Z,4.64
2019-01-02T20:22:48.086Z,4.60
2019-01-02T20:25:20.027Z,4.55
2019-01-02T20:27:52.990Z,4.48
2019-01-02T20:30:25.305Z,4.53
2019-01-02T20:32:58.905Z,4.53
2019-01-02T20:35:31.993Z,4.51
2019-01-02T20:38:04.004Z,4.49
2019-01-02T20:40:39.425Z,4.54
2019-01-02T20:43:14.235Z,4.46
2019-01-02T20:45:46.199Z,4.39
2019-01-02T20:48:18.096Z,4.49
2019-01-02T20:50:54.140Z,4.49
2019-01-02T20:53:28.515Z,4.48
2019-01-02T20:56:03.440Z,4.49
2019-01-02T20:58:37.685Z,4.55
2019-01-02T21:01:25.128Z,4.50
2019-01-02T21:03:57.194Z,4.36
2019-01-02T21:06:29.055Z,4.24
2019-01-02T21:09:01.093Z,4.18
2019-01-02T21:11:39.873Z,4.16
2019-01-02T21:14:16.108Z,4.08
2019-01-02T21:16:48.452Z,3.96
2019-01-02T21:19:20.416Z,3.92
2019-01-02T21:21:53.560Z,3.96
2019-01-02T21:24:25.521Z,3.88
2019-01-02T21:26:57.402Z,3.89
2019-01-02T21:29:29.356Z,3.89
2019-01-02T21:32:02.878Z,3.87
2019-01-02T21:34:35.306Z,3.82
2019-01-02T21:37:07.180Z,3.94
2019-01-02T21:39:39.197Z,3.99
2019-01-02T21:42:11.124Z,3.80
2019-01-02T21:44:43.468Z,3.73
2019-01-02T21:47:16.046Z,3.79
2019-01-02T21:49:47.982Z,3.68
2019-01-02T21:52:19.923Z,3.71
2019-01-02T21:54:51.845Z,3.65
2019-01-02T21:57:23.833Z,3.73
2019-01-02T21:59:56.134Z,3.68
2019-01-02T22:02:28.700Z,3.64
2019-01-02T22:05:00.673Z,3.66
2019-01-02T22:07:32.645Z,3.62
2019-01-02T22:10:04.788Z,3.62
2019-01-02T22:12:36.852Z,3.66
2019-01-02T22:15:13.201Z,3.62
2019-01-02T22:17:45.299Z,3.60
2019-01-02T22:20:17.402Z,3.70
2019-01-02T22:22:49.419Z,3.66
2019-01-02T22:25:21.275Z,3.57
2019-01-02T22:27:53.279Z,3.55
2019-01-02T22:30:25.239Z,3.46
2019-01-02T22:32:57.116Z,3.47
2019-01-02T22:35:29.193Z,3.46
2019-01-02T22:38:01.481Z,3.47
2019-01-02T22:40:33.378Z,3.42
2019-01-02T22:43:05.241Z,3.33
2019-01-02T22:45:37.642Z,3.30
2019-01-02T22:48:09.539Z,3.25
2019-01-02T22:50:41.479Z,3.23
2019-01-02T22:53:13.330Z,3.23
2019-01-02T22:55:45.231Z,3.29
2019-01-02T22:58:17.070Z,3.32
2019-01-02T23:01:02.284Z,3.33
2019-01-02T23:04:00.153Z,3.33
2019-01-02T23:06:51.144Z,3.42
2019-01-02T23:09:44.949Z,3.47
2019-01-02T23:12:35.176Z,3.25
2019-01-02T23:15:24.291Z,3.13
2019-01-02T23:18:13.759Z,3.11
2019-01-02T23:21:04.886Z,3.08
2019-01-02T23:23:54.216Z,2.94
2019-01-02T23:26:51.002Z,2.85
2019-01-02T23:29:51.207Z,2.77
2019-01-02T23:32:48.999Z,2.94
2019-01-02T23:35:40.228Z,2.94
2019-01-02T23:38:30.832Z,2.99
2019-01-02T23:41:20.450Z,3.01
2019-01-02T23:44:10.002Z,3.03
2019-01-02T23:46:59.586Z,3.06
2019-01-02T23:49:49.347Z,3.05
2019-01-02T23:52:50.006Z,3.17
2019-01-02T23:55:40.882Z,3.25
2019-01-02T23:58:30.301Z,3.33
